sensor_id;sensor_type;location;lat;lon;timestamp;temperature;humidity
9049;DHT22;4559;47.252;9.592;2022-07-04T00:00:12;20.40;99.90
9049;DHT22;4559;47.252;9.592;2022-07-04T00:02:40;20.40;99.90
9049;DHT22;4559;47.252;9.592;2022-07-04T00:05:07;20.30;99.90
9049;DHT22;4559;47.252;9.592;2022-07-04T00:07:36;20.30;99.90
9049;DHT22;4559;47.252;9.592;2022-07-04T00:10:03;20.30;99.90
9049;DHT22;4559;47.252;9.592;2022-07-04T00:12:29;20.30;99.90
9049;DHT22;4559;47.252;9.592;2022-07-04T00:14:54;20.30;99.90
9049;DHT22;4559;47.252;9.592;2022-07-04T00:17:20;20.30;99.90
9049;DHT22;4559;47.252;9.592;2022-07-04T00:19:45;20.30;99.90
9049;DHT22;4559;47.252;9.592;2022-07-04T00:22:11;20.30;99.90
9049;DHT22;4559;47.252;9.592;2022-07-04T00:24:37;20.30;99.90
9049;DHT22;4559;47.252;9.592;2022-07-04T00:27:02;20.40;99.90
9049;DHT22;4559;47.252;9.592;2022-07-04T00:29:28;20.40;99.90
9049;DHT22;4559;47.252;9.592;2022-07-04T00:31:54;20.50;99.90
9049;DHT22;4559;47.252;9.592;2022-07-04T00:34:20;20.50;99.90
9049;DHT22;4559;47.252;9.592;2022-07-04T00:36:46;20.50;99.90
9049;DHT22;4559;47.252;9.592;2022-07-04T00:39:12;20.50;99.90
9049;DHT22;4559;47.252;9.592;2022-07-04T00:41:37;20.60;99.90
9049;DHT22;4559;47.252;9.592;2022-07-04T00:44:08;20.60;99.90
9049;DHT22;4559;47.252;9.592;2022-07-04T00:46:34;20.60;99.90
9049;DHT22;4559;47.252;9.592;2022-07-04T00:49:02;20.60;99.90
9049;DHT22;4559;47.252;9.592;2022-07-04T00:51:28;20.60;99.90
9049;DHT22;4559;47.252;9.592;2022-07-04T00:53:54;20.60;99.90
9049;DHT22;4559;47.252;9.592;2022-07-04T00:56:21;20.60;99.90
9049;DHT22;4559;47.252;9.592;2022-07-04T00:58:47;20.50;99.90
9049;DHT22;4559;47.252;9.592;2022-07-04T01:01:13;20.50;99.90
9049;DHT22;4559;47.252;9.592;2022-07-04T01:03:39;20.50;99.90
9049;DHT22;4559;47.252;9.592;2022-07-04T01:06:06;20.40;99.90
9049;DHT22;4559;47.252;9.592;2022-07-04T01:08:36;20.40;99.90
9049;DHT22;4559;47.252;9.592;2022-07-04T01:11:02;20.30;99.90
9049;DHT22;4559;47.252;9.592;2022-07-04T01:13:28;20.30;99.90
9049;DHT22;4559;47.252;9.592;2022-07-04T01:15:53;20.20;99.90
9049;DHT22;4559;47.252;9.592;2022-07-04T01:18:19;20.20;99.90
9049;DHT22;4559;47.252;9.592;2022-07-04T01:20:45;20.20;99.90
9049;DHT22;4559;47.252;9.592;2022-07-04T01:23:10;20.20;99.90
9049;DHT22;4559;47.252;9.592;2022-07-04T01:25:36;20.10;99.90
9049;DHT22;4559;47.252;9.592;2022-07-04T01:28:03;20.10;99.90
9049;DHT22;4559;47.252;9.592;2022-07-04T01:30:29;20.00;99.90
9049;DHT22;4559;47.252;9.592;2022-07-04T01:32:55;20.00;99.90
9049;DHT22;4559;47.252;9.592;2022-07-04T01:35:22;20.00;99.90
9049;DHT22;4559;47.252;9.592;2022-07-04T01:37:48;19.90;99.90
9049;DHT22;4559;47.252;9.592;2022-07-04T01:40:14;19.90;99.90
9049;DHT22;4559;47.252;9.592;2022-07-04T01:42:40;19.80;99.90
9049;DHT22;4559;47.252;9.592;2022-07-04T01:45:07;19.70;99.90
9049;DHT22;4559;47.252;9.592;2022-07-04T01:47:33;19.70;99.90
9049;DHT22;4559;47.252;9.592;2022-07-04T01:49:59;19.60;99.90
9049;DHT22;4559;47.252;9.592;2022-07-04T01:52:25;19.50;99.90
9049;DHT22;4559;47.252;9.592;2022-07-04T01:54:51;19.60;99.90
9049;DHT22;4559;47.252;9.592;2022-07-04T01:57:17;19.60;99.90
9049;DHT22;4559;47.252;9.592;2022-07-04T01:59:42;19.60;99.90
9049;DHT22;4559;47.252;9.592;2022-07-04T02:02:27;19.60;99.90
9049;DHT22;4559;47.252;9.592;2022-07-04T02:04:52;19.60;99.90
9049;DHT22;4559;47.252;9.592;2022-07-04T02:07:18;19.60;99.90
9049;DHT22;4559;47.252;9.592;2022-07-04T02:09:44;19.50;99.90
9049;DHT22;4559;47.252;9.592;2022-07-04T02:12:09;19.50;99.90
9049;DHT22;4559;47.252;9.592;2022-07-04T02:14:53;19.60;99.90
9049;DHT22;4559;47.252;9.592;2022-07-04T02:17:19;19.60;99.90
9049;DHT22;4559;47.252;9.592;2022-07-04T02:19:45;19.60;99.90
9049;DHT22;4559;47.252;9.592;2022-07-04T02:22:11;19.50;99.90
9049;DHT22;4559;47.252;9.592;2022-07-04T02:24:36;19.60;99.90
9049;DHT22;4559;47.252;9.592;2022-07-04T02:27:02;19.50;99.90
9049;DHT22;4559;47.252;9.592;2022-07-04T02:29:28;19.60;99.90
9049;DHT22;4559;47.252;9.592;2022-07-04T02:31:54;19.60;99.90
9049;DHT22;4559;47.252;9.592;2022-07-04T02:34:20;19.60;99.90
9049;DHT22;4559;47.252;9.592;2022-07-04T02:36:45;19.60;99.90
9049;DHT22;4559;47.252;9.592;2022-07-04T02:39:11;19.60;99.90
9049;DHT22;4559;47.252;9.592;2022-07-04T02:41:37;19.70;99.90
9049;DHT22;4559;47.252;9.592;2022-07-04T02:44:02;19.70;99.90
9049;DHT22;4559;47.252;9.592;2022-07-04T02:46:28;19.70;99.90
9049;DHT22;4559;47.252;9.592;2022-07-04T02:48:54;19.70;99.90
9049;DHT22;4559;47.252;9.592;2022-07-04T02:51:20;19.70;99.90
9049;DHT22;4559;47.252;9.592;2022-07-04T02:53:45;19.70;99.90
9049;DHT22;4559;47.252;9.592;2022-07-04T02:56:11;19.70;99.90
9049;DHT22;4559;47.252;9.592;2022-07-04T02:58:37;19.70;99.90
9049;DHT22;4559;47.252;9.592;2022-07-04T03:01:02;19.70;99.90
9049;DHT22;4559;47.252;9.592;2022-07-04T03:03:28;19.70;99.90
9049;DHT22;4559;47.252;9.592;2022-07-04T03:05:53;19.70;99.90
9049;DHT22;4559;47.252;9.592;2022-07-04T03:08:19;19.70;99.90
9049;DHT22;4559;47.252;9.592;2022-07-04T03:10:45;19.70;99.90
9049;DHT22;4559;47.252;9.592;2022-07-04T03:13:10;19.70;99.90
9049;DHT22;4559;47.252;9.592;2022-07-04T03:15:36;19.70;99.90
9049;DHT22;4559;47.252;9.592;2022-07-04T03:18:02;19.70;99.90
9049;DHT22;4559;47.252;9.592;2022-07-04T03:20:27;19.70;99.90
9049;DHT22;4559;47.252;9.592;2022-07-04T03:22:53;19.70;99.90
9049;DHT22;4559;47.252;9.592;2022-07-04T03:25:20;19.70;99.90
9049;DHT22;4559;47.252;9.592;2022-07-04T03:27:46;19.70;99.90
9049;DHT22;4559;47.252;9.592;2022-07-04T03:30:12;19.70;99.90
9049;DHT22;4559;47.252;9.592;2022-07-04T03:32:38;19.70;99.90
9049;DHT22;4559;47.252;9.592;2022-07-04T03:35:04;19.70;99.90
9049;DHT22;4559;47.252;9.592;2022-07-04T03:37:30;19.70;99.90
9049;DHT22;4559;47.252;9.592;2022-07-04T03:39:56;19.70;99.90
9049;DHT22;4559;47.252;9.592;2022-07-04T03:42:21;19.70;99.90
9049;DHT22;4559;47.252;9.592;2022-07-04T03:44:47;19.70;99.90
9049;DHT22;4559;47.252;9.592;2022-07-04T03:47:13;19.80;99.90
9049;DHT22;4559;47.252;9.592;2022-07-04T03:49:38;19.80;99.90
9049;DHT22;4559;47.252;9.592;2022-07-04T03:52:04;19.80;99.90
9049;DHT22;4559;47.252;9.592;2022-07-04T03:54:30;19.80;99.90
9049;DHT22;4559;47.252;9.592;2022-07-04T03:56:56;19.80;99.90
9049;DHT22;4559;47.252;9.592;2022-07-04T03:59:21;19.80;99.90
9049;DHT22;4559;47.252;9.592;2022-07-04T04:01:47;19.80;99.90
9049;DHT22;4559;47.252;9.592;2022-07-04T04:04:12;19.80;99.90
9049;DHT22;4559;47.252;9.592;2022-07-04T04:06:57;19.80;99.90
9049;DHT22;4559;47.252;9.592;2022-07-04T04:09:22;19.80;99.90
9049;DHT22;4559;47.252;9.592;2022-07-04T04:11:50;19.80;99.90
9049;DHT22;4559;47.252;9.592;2022-07-04T04:14:16;19.80;99.90
9049;DHT22;4559;47.252;9.592;2022-07-04T04:16:41;19.70;99.90
9049;DHT22;4559;47.252;9.592;2022-07-04T04:19:11;19.70;99.90
9049;DHT22;4559;47.252;9.592;2022-07-04T04:21:37;19.80;99.90
9049;DHT22;4559;47.252;9.592;2022-07-04T04:24:02;19.80;99.90
9049;DHT22;4559;47.252;9.592;2022-07-04T04:26:29;19.80;99.90
9049;DHT22;4559;47.252;9.592;2022-07-04T04:28:55;19.80;99.90
9049;DHT22;4559;47.252;9.592;2022-07-04T04:31:21;19.80;99.90
9049;DHT22;4559;47.252;9.592;2022-07-04T04:33:46;19.90;99.90
9049;DHT22;4559;47.252;9.592;2022-07-04T04:36:12;19.80;99.90
9049;DHT22;4559;47.252;9.592;2022-07-04T04:38:37;19.80;99.90
9049;DHT22;4559;47.252;9.592;2022-07-04T04:41:03;19.80;99.90
9049;DHT22;4559;47.252;9.592;2022-07-04T04:43:29;19.80;99.90
9049;DHT22;4559;47.252;9.592;2022-07-04T04:45:55;19.80;99.90
9049;DHT22;4559;47.252;9.592;2022-07-04T04:48:20;19.80;99.90
9049;DHT22;4559;47.252;9.592;2022-07-04T04:50:46;19.90;99.90
9049;DHT22;4559;47.252;9.592;2022-07-04T04:53:12;19.90;99.90
9049;DHT22;4559;47.252;9.592;2022-07-04T04:55:38;20.00;99.90
9049;DHT22;4559;47.252;9.592;2022-07-04T04:58:03;20.00;99.90
9049;DHT22;4559;47.252;9.592;2022-07-04T05:00:29;20.10;99.90
9049;DHT22;4559;47.252;9.592;2022-07-04T05:02:55;20.10;99.90
9049;DHT22;4559;47.252;9.592;2022-07-04T05:05:20;20.20;99.90
9049;DHT22;4559;47.252;9.592;2022-07-04T05:07:46;20.20;99.90
9049;DHT22;4559;47.252;9.592;2022-07-04T05:10:12;20.30;99.90
9049;DHT22;4559;47.252;9.592;2022-07-04T05:12:38;20.30;99.90
9049;DHT22;4559;47.252;9.592;2022-07-04T05:15:04;20.40;99.90
9049;DHT22;4559;47.252;9.592;2022-07-04T05:17:30;20.40;99.90
9049;DHT22;4559;47.252;9.592;2022-07-04T05:19:55;20.40;99.90
9049;DHT22;4559;47.252;9.592;2022-07-04T05:22:21;20.40;99.90
9049;DHT22;4559;47.252;9.592;2022-07-04T05:24:47;20.40;99.90
9049;DHT22;4559;47.252;9.592;2022-07-04T05:27:12;20.40;99.90
9049;DHT22;4559;47.252;9.592;2022-07-04T05:29:38;20.40;99.90
9049;DHT22;4559;47.252;9.592;2022-07-04T05:32:05;20.30;99.90
9049;DHT22;4559;47.252;9.592;2022-07-04T05:34:30;20.20;99.90
9049;DHT22;4559;47.252;9.592;2022-07-04T05:36:57;20.20;99.90
9049;DHT22;4559;47.252;9.592;2022-07-04T05:39:23;20.10;99.90
9049;DHT22;4559;47.252;9.592;2022-07-04T05:41:49;20.10;99.90
9049;DHT22;4559;47.252;9.592;2022-07-04T05:44:14;20.10;99.90
9049;DHT22;4559;47.252;9.592;2022-07-04T05:46:40;20.00;99.90
9049;DHT22;4559;47.252;9.592;2022-07-04T05:49:05;20.00;99.90
9049;DHT22;4559;47.252;9.592;2022-07-04T05:51:31;19.90;99.90
9049;DHT22;4559;47.252;9.592;2022-07-04T05:53:57;19.90;99.90
9049;DHT22;4559;47.252;9.592;2022-07-04T05:56:22;19.90;99.90
9049;DHT22;4559;47.252;9.592;2022-07-04T05:58:48;19.90;99.90
9049;DHT22;4559;47.252;9.592;2022-07-04T06:01:14;19.90;99.90
9049;DHT22;4559;47.252;9.592;2022-07-04T06:03:40;19.90;99.90
9049;DHT22;4559;47.252;9.592;2022-07-04T06:06:06;19.80;99.90
9049;DHT22;4559;47.252;9.592;2022-07-04T06:08:32;19.80;99.90
9049;DHT22;4559;47.252;9.592;2022-07-04T06:10:58;19.80;99.90
9049;DHT22;4559;47.252;9.592;2022-07-04T06:13:24;19.80;99.90
9049;DHT22;4559;47.252;9.592;2022-07-04T06:15:50;19.70;99.90
9049;DHT22;4559;47.252;9.592;2022-07-04T06:18:15;19.70;99.90
9049;DHT22;4559;47.252;9.592;2022-07-04T06:20:41;19.70;99.90
9049;DHT22;4559;47.252;9.592;2022-07-04T06:23:07;19.60;99.90
9049;DHT22;4559;47.252;9.592;2022-07-04T06:25:34;19.60;99.90
9049;DHT22;4559;47.252;9.592;2022-07-04T06:28:00;19.50;99.90
9049;DHT22;4559;47.252;9.592;2022-07-04T06:30:26;19.50;99.90
9049;DHT22;4559;47.252;9.592;2022-07-04T06:32:54;19.40;99.90
9049;DHT22;4559;47.252;9.592;2022-07-04T06:35:25;19.30;99.90
9049;DHT22;4559;47.252;9.592;2022-07-04T06:38:10;19.20;99.90
9049;DHT22;4559;47.252;9.592;2022-07-04T06:40:37;19.20;99.90
9049;DHT22;4559;47.252;9.592;2022-07-04T06:43:03;19.20;99.90
9049;DHT22;4559;47.252;9.592;2022-07-04T06:45:29;19.20;99.90
9049;DHT22;4559;47.252;9.592;2022-07-04T06:47:55;19.30;99.90
9049;DHT22;4559;47.252;9.592;2022-07-04T06:50:22;19.30;99.90
9049;DHT22;4559;47.252;9.592;2022-07-04T06:52:48;19.20;99.90
9049;DHT22;4559;47.252;9.592;2022-07-04T06:55:14;19.20;99.90
9049;DHT22;4559;47.252;9.592;2022-07-04T06:57:39;19.10;99.90
9049;DHT22;4559;47.252;9.592;2022-07-04T07:00:07;19.00;99.90
9049;DHT22;4559;47.252;9.592;2022-07-04T07:02:36;19.00;99.90
9049;DHT22;4559;47.252;9.592;2022-07-04T07:05:02;18.90;99.90
9049;DHT22;4559;47.252;9.592;2022-07-04T07:07:28;18.80;99.90
9049;DHT22;4559;47.252;9.592;2022-07-04T07:09:54;18.80;99.90
9049;DHT22;4559;47.252;9.592;2022-07-04T07:12:20;18.80;99.90
9049;DHT22;4559;47.252;9.592;2022-07-04T07:14:47;18.80;99.90
9049;DHT22;4559;47.252;9.592;2022-07-04T07:17:13;18.80;99.90
9049;DHT22;4559;47.252;9.592;2022-07-04T07:19:38;18.80;99.90
9049;DHT22;4559;47.252;9.592;2022-07-04T07:22:04;18.90;99.90
9049;DHT22;4559;47.252;9.592;2022-07-04T07:24:29;19.00;99.90
9049;DHT22;4559;47.252;9.592;2022-07-04T07:26:58;19.10;99.90
9049;DHT22;4559;47.252;9.592;2022-07-04T07:29:24;19.20;99.90
9049;DHT22;4559;47.252;9.592;2022-07-04T07:31:49;19.30;99.90
9049;DHT22;4559;47.252;9.592;2022-07-04T07:34:15;19.40;99.90
9049;DHT22;4559;47.252;9.592;2022-07-04T07:36:41;19.50;99.90
9049;DHT22;4559;47.252;9.592;2022-07-04T07:39:06;19.50;99.90
9049;DHT22;4559;47.252;9.592;2022-07-04T07:41:32;19.50;99.90
9049;DHT22;4559;47.252;9.592;2022-07-04T07:43:58;19.50;99.90
9049;DHT22;4559;47.252;9.592;2022-07-04T07:46:23;19.50;99.90
9049;DHT22;4559;47.252;9.592;2022-07-04T07:48:49;19.40;99.90
9049;DHT22;4559;47.252;9.592;2022-07-04T07:51:15;19.30;99.90
9049;DHT22;4559;47.252;9.592;2022-07-04T07:53:42;19.40;99.90
9049;DHT22;4559;47.252;9.592;2022-07-04T07:56:08;19.50;99.90
9049;DHT22;4559;47.252;9.592;2022-07-04T07:58:34;19.60;99.90
9049;DHT22;4559;47.252;9.592;2022-07-04T08:01:00;19.70;99.90
9049;DHT22;4559;47.252;9.592;2022-07-04T08:03:28;19.80;99.90
9049;DHT22;4559;47.252;9.592;2022-07-04T08:06:12;19.90;99.90
9049;DHT22;4559;47.252;9.592;2022-07-04T08:08:38;20.00;99.90
9049;DHT22;4559;47.252;9.592;2022-07-04T08:11:04;20.10;99.90
9049;DHT22;4559;47.252;9.592;2022-07-04T08:13:30;20.20;99.90
9049;DHT22;4559;47.252;9.592;2022-07-04T08:15:56;20.20;99.90
9049;DHT22;4559;47.252;9.592;2022-07-04T08:18:22;20.30;99.90
9049;DHT22;4559;47.252;9.592;2022-07-04T08:20:49;20.30;99.90
9049;DHT22;4559;47.252;9.592;2022-07-04T08:23:15;20.20;99.90
9049;DHT22;4559;47.252;9.592;2022-07-04T08:25:41;20.20;99.90
9049;DHT22;4559;47.252;9.592;2022-07-04T08:28:07;20.10;99.90
9049;DHT22;4559;47.252;9.592;2022-07-04T08:30:33;20.10;99.90
9049;DHT22;4559;47.252;9.592;2022-07-04T08:32:59;20.00;99.90
9049;DHT22;4559;47.252;9.592;2022-07-04T08:35:25;19.90;99.90
9049;DHT22;4559;47.252;9.592;2022-07-04T08:37:51;19.90;99.90
9049;DHT22;4559;47.252;9.592;2022-07-04T08:40:22;19.90;99.90
9049;DHT22;4559;47.252;9.592;2022-07-04T08:42:49;20.00;99.90
9049;DHT22;4559;47.252;9.592;2022-07-04T08:45:15;19.90;99.90
9049;DHT22;4559;47.252;9.592;2022-07-04T08:47:42;19.90;99.90
9049;DHT22;4559;47.252;9.592;2022-07-04T08:50:13;19.90;99.90
9049;DHT22;4559;47.252;9.592;2022-07-04T08:52:51;20.00;99.90
9049;DHT22;4559;47.252;9.592;2022-07-04T08:55:19;20.10;99.90
9049;DHT22;4559;47.252;9.592;2022-07-04T08:58:04;20.20;99.90
9049;DHT22;4559;47.252;9.592;2022-07-04T09:00:50;20.30;99.90
9049;DHT22;4559;47.252;9.592;2022-07-04T09:03:18;20.40;99.90
9049;DHT22;4559;47.252;9.592;2022-07-04T09:05:43;20.50;99.90
9049;DHT22;4559;47.252;9.592;2022-07-04T09:08:09;20.60;99.90
9049;DHT22;4559;47.252;9.592;2022-07-04T09:10:36;20.60;99.90
9049;DHT22;4559;47.252;9.592;2022-07-04T09:13:03;20.60;99.90
9049;DHT22;4559;47.252;9.592;2022-07-04T09:15:29;20.80;99.90
9049;DHT22;4559;47.252;9.592;2022-07-04T09:17:55;20.90;99.90
9049;DHT22;4559;47.252;9.592;2022-07-04T09:20:22;21.00;99.90
9049;DHT22;4559;47.252;9.592;2022-07-04T09:22:50;21.10;99.90
9049;DHT22;4559;47.252;9.592;2022-07-04T09:25:16;21.20;99.90
9049;DHT22;4559;47.252;9.592;2022-07-04T09:27:47;21.30;99.90
9049;DHT22;4559;47.252;9.592;2022-07-04T09:30:19;21.40;99.90
9049;DHT22;4559;47.252;9.592;2022-07-04T09:32:50;21.50;99.90
9049;DHT22;4559;47.252;9.592;2022-07-04T09:35:18;21.60;99.90
9049;DHT22;4559;47.252;9.592;2022-07-04T09:37:58;21.80;99.90
9049;DHT22;4559;47.252;9.592;2022-07-04T09:40:33;22.00;99.90
9049;DHT22;4559;47.252;9.592;2022-07-04T09:43:01;22.10;99.90
9049;DHT22;4559;47.252;9.592;2022-07-04T09:45:35;22.30;99.90
9049;DHT22;4559;47.252;9.592;2022-07-04T09:48:17;22.40;99.90
9049;DHT22;4559;47.252;9.592;2022-07-04T09:50:43;22.70;99.90
9049;DHT22;4559;47.252;9.592;2022-07-04T09:53:09;22.90;99.90
9049;DHT22;4559;47.252;9.592;2022-07-04T09:55:39;23.10;99.90
9049;DHT22;4559;47.252;9.592;2022-07-04T09:58:11;23.40;99.90
9049;DHT22;4559;47.252;9.592;2022-07-04T10:00:42;23.50;99.90
9049;DHT22;4559;47.252;9.592;2022-07-04T10:05:44;23.70;99.90
9049;DHT22;4559;47.252;9.592;2022-07-04T10:08:10;23.70;99.90
9049;DHT22;4559;47.252;9.592;2022-07-04T10:10:37;23.90;99.90
9049;DHT22;4559;47.252;9.592;2022-07-04T10:13:09;23.90;99.90
9049;DHT22;4559;47.252;9.592;2022-07-04T10:15:37;24.00;99.90
9049;DHT22;4559;47.252;9.592;2022-07-04T10:18:05;24.00;99.90
9049;DHT22;4559;47.252;9.592;2022-07-04T10:20:31;24.00;99.90
9049;DHT22;4559;47.252;9.592;2022-07-04T10:22:57;24.20;99.90
9049;DHT22;4559;47.252;9.592;2022-07-04T10:25:24;24.50;99.90
9049;DHT22;4559;47.252;9.592;2022-07-04T10:27:49;24.80;99.90
9049;DHT22;4559;47.252;9.592;2022-07-04T10:32:49;25.30;99.90
9049;DHT22;4559;47.252;9.592;2022-07-04T10:35:16;25.60;99.90
9049;DHT22;4559;47.252;9.592;2022-07-04T10:38:01;25.80;99.90
9049;DHT22;4559;47.252;9.592;2022-07-04T10:48:50;26.60;99.90
9049;DHT22;4559;47.252;9.592;2022-07-04T10:51:18;26.80;99.90
9049;DHT22;4559;47.252;9.592;2022-07-04T10:54:11;26.90;99.90
9049;DHT22;4559;47.252;9.592;2022-07-04T10:56:37;27.00;99.90
9049;DHT22;4559;47.252;9.592;2022-07-04T10:59:16;27.00;99.90
9049;DHT22;4559;47.252;9.592;2022-07-04T11:17:57;27.80;99.90
9049;DHT22;4559;47.252;9.592;2022-07-04T11:20:24;27.90;99.90
9049;DHT22;4559;47.252;9.592;2022-07-04T11:22:50;28.00;99.90
9049;DHT22;4559;47.252;9.592;2022-07-04T11:25:16;28.20;99.90
9049;DHT22;4559;47.252;9.592;2022-07-04T11:27:42;28.30;99.50
9049;DHT22;4559;47.252;9.592;2022-07-04T11:30:10;28.40;99.10
9049;DHT22;4559;47.252;9.592;2022-07-04T11:32:37;28.40;97.30
9049;DHT22;4559;47.252;9.592;2022-07-04T11:35:06;28.50;98.20
9049;DHT22;4559;47.252;9.592;2022-07-04T11:37:33;28.60;97.50
9049;DHT22;4559;47.252;9.592;2022-07-04T11:39:59;28.70;97.40
9049;DHT22;4559;47.252;9.592;2022-07-04T11:43:05;28.70;97.30
9049;DHT22;4559;47.252;9.592;2022-07-04T11:45:51;28.70;97.60
9049;DHT22;4559;47.252;9.592;2022-07-04T11:48:24;28.70;96.60
9049;DHT22;4559;47.252;9.592;2022-07-04T11:50:50;28.80;97.00
9049;DHT22;4559;47.252;9.592;2022-07-04T11:53:18;28.90;96.40
9049;DHT22;4559;47.252;9.592;2022-07-04T11:55:54;29.00;98.90
9049;DHT22;4559;47.252;9.592;2022-07-04T11:58:21;29.10;99.00
9049;DHT22;4559;47.252;9.592;2022-07-04T12:00:47;29.30;99.00
9049;DHT22;4559;47.252;9.592;2022-07-04T12:03:15;29.50;98.20
9049;DHT22;4559;47.252;9.592;2022-07-04T12:05:41;29.60;97.30
9049;DHT22;4559;47.252;9.592;2022-07-04T12:08:09;29.60;96.10
9049;DHT22;4559;47.252;9.592;2022-07-04T12:10:35;29.70;96.70
9049;DHT22;4559;47.252;9.592;2022-07-04T12:13:03;29.80;96.30
9049;DHT22;4559;47.252;9.592;2022-07-04T12:18:03;29.90;95.50
9049;DHT22;4559;47.252;9.592;2022-07-04T12:20:31;30.00;96.90
9049;DHT22;4559;47.252;9.592;2022-07-04T12:22:59;30.00;95.50
9049;DHT22;4559;47.252;9.592;2022-07-04T12:25:34;30.10;96.50
9049;DHT22;4559;47.252;9.592;2022-07-04T12:28:13;30.20;96.70
9049;DHT22;4559;47.252;9.592;2022-07-04T12:30:57;30.30;96.80
9049;DHT22;4559;47.252;9.592;2022-07-04T12:33:25;30.40;95.80
9049;DHT22;4559;47.252;9.592;2022-07-04T12:35:54;30.40;95.70
9049;DHT22;4559;47.252;9.592;2022-07-04T12:38:29;30.50;94.80
9049;DHT22;4559;47.252;9.592;2022-07-04T12:48:52;30.50;93.50
9049;DHT22;4559;47.252;9.592;2022-07-04T12:51:26;30.60;94.20
9049;DHT22;4559;47.252;9.592;2022-07-04T12:53:55;30.50;94.10
9049;DHT22;4559;47.252;9.592;2022-07-04T12:58:56;30.60;93.50
9049;DHT22;4559;47.252;9.592;2022-07-04T13:01:22;30.70;94.30
9049;DHT22;4559;47.252;9.592;2022-07-04T13:03:47;30.80;93.80
9049;DHT22;4559;47.252;9.592;2022-07-04T13:06:13;30.80;93.20
9049;DHT22;4559;47.252;9.592;2022-07-04T13:08:39;30.80;93.10
9049;DHT22;4559;47.252;9.592;2022-07-04T13:11:04;30.80;92.70
9049;DHT22;4559;47.252;9.592;2022-07-04T13:13:49;30.80;93.00
9049;DHT22;4559;47.252;9.592;2022-07-04T13:16:14;30.70;93.20
9049;DHT22;4559;47.252;9.592;2022-07-04T13:18:40;30.70;92.80
9049;DHT22;4559;47.252;9.592;2022-07-04T13:21:06;30.70;92.40
9049;DHT22;4559;47.252;9.592;2022-07-04T13:23:32;30.60;92.70
9049;DHT22;4559;47.252;9.592;2022-07-04T13:25:57;30.40;92.70
9049;DHT22;4559;47.252;9.592;2022-07-04T13:28:23;30.20;92.40
9049;DHT22;4559;47.252;9.592;2022-07-04T13:30:48;29.90;92.90
9049;DHT22;4559;47.252;9.592;2022-07-04T13:33:14;29.70;93.60
9049;DHT22;4559;47.252;9.592;2022-07-04T13:35:41;29.50;94.30
9049;DHT22;4559;47.252;9.592;2022-07-04T13:38:07;29.30;94.60
9049;DHT22;4559;47.252;9.592;2022-07-04T13:40:32;29.00;94.80
9049;DHT22;4559;47.252;9.592;2022-07-04T13:42:58;28.90;95.40
9049;DHT22;4559;47.252;9.592;2022-07-04T13:45:28;28.70;95.50
9049;DHT22;4559;47.252;9.592;2022-07-04T13:47:54;28.50;96.20
9049;DHT22;4559;47.252;9.592;2022-07-04T13:50:21;28.40;96.70
9049;DHT22;4559;47.252;9.592;2022-07-04T13:52:47;28.40;97.00
9049;DHT22;4559;47.252;9.592;2022-07-04T13:55:13;28.40;97.30
9049;DHT22;4559;47.252;9.592;2022-07-04T13:57:38;28.30;97.20
9049;DHT22;4559;47.252;9.592;2022-07-04T14:00:06;28.20;97.80
9049;DHT22;4559;47.252;9.592;2022-07-04T14:02:33;28.20;97.40
9049;DHT22;4559;47.252;9.592;2022-07-04T14:04:58;28.10;98.10
9049;DHT22;4559;47.252;9.592;2022-07-04T14:07:24;28.10;97.90
9049;DHT22;4559;47.252;9.592;2022-07-04T14:09:50;28.10;98.10
9049;DHT22;4559;47.252;9.592;2022-07-04T14:12:16;28.00;98.60
9049;DHT22;4559;47.252;9.592;2022-07-04T14:14:42;27.90;99.00
9049;DHT22;4559;47.252;9.592;2022-07-04T14:17:09;27.90;99.20
9049;DHT22;4559;47.252;9.592;2022-07-04T14:19:34;27.80;98.90
9049;DHT22;4559;47.252;9.592;2022-07-04T14:22:00;27.60;99.00
9049;DHT22;4559;47.252;9.592;2022-07-04T14:24:26;27.60;99.30
9049;DHT22;4559;47.252;9.592;2022-07-04T14:26:52;27.60;99.30
9049;DHT22;4559;47.252;9.592;2022-07-04T14:29:19;27.60;99.20
9049;DHT22;4559;47.252;9.592;2022-07-04T14:31:47;27.70;98.80
9049;DHT22;4559;47.252;9.592;2022-07-04T14:34:13;27.70;99.60
9049;DHT22;4559;47.252;9.592;2022-07-04T14:36:39;27.60;99.10
9049;DHT22;4559;47.252;9.592;2022-07-04T14:39:07;27.50;98.80
9049;DHT22;4559;47.252;9.592;2022-07-04T14:41:32;27.40;98.90
9049;DHT22;4559;47.252;9.592;2022-07-04T14:43:58;27.30;98.40
9049;DHT22;4559;47.252;9.592;2022-07-04T14:46:24;27.20;98.20
9049;DHT22;4559;47.252;9.592;2022-07-04T14:48:49;27.00;97.70
9049;DHT22;4559;47.252;9.592;2022-07-04T14:51:15;26.90;97.60
9049;DHT22;4559;47.252;9.592;2022-07-04T14:53:41;26.70;97.80
9049;DHT22;4559;47.252;9.592;2022-07-04T14:56:07;26.60;97.90
9049;DHT22;4559;47.252;9.592;2022-07-04T14:58:33;26.40;98.10
9049;DHT22;4559;47.252;9.592;2022-07-04T15:00:59;26.20;98.40
9049;DHT22;4559;47.252;9.592;2022-07-04T15:03:24;26.10;99.10
9049;DHT22;4559;47.252;9.592;2022-07-04T15:05:50;26.00;99.80
9049;DHT22;4559;47.252;9.592;2022-07-04T15:08:16;26.00;99.90
9049;DHT22;4559;47.252;9.592;2022-07-04T15:10:42;25.80;99.90
9049;DHT22;4559;47.252;9.592;2022-07-04T15:13:08;25.70;99.90
9049;DHT22;4559;47.252;9.592;2022-07-04T15:15:34;25.60;99.90
9049;DHT22;4559;47.252;9.592;2022-07-04T15:18:00;25.40;99.90
9049;DHT22;4559;47.252;9.592;2022-07-04T15:20:25;25.30;99.90
9049;DHT22;4559;47.252;9.592;2022-07-04T15:23:09;25.10;99.90
9049;DHT22;4559;47.252;9.592;2022-07-04T15:25:53;24.90;99.90
9049;DHT22;4559;47.252;9.592;2022-07-04T15:28:19;24.70;99.90
9049;DHT22;4559;47.252;9.592;2022-07-04T15:30:45;24.40;99.90
9049;DHT22;4559;47.252;9.592;2022-07-04T15:33:11;23.90;99.90
9049;DHT22;4559;47.252;9.592;2022-07-04T15:35:44;23.40;99.90
9049;DHT22;4559;47.252;9.592;2022-07-04T15:38:10;22.90;99.90
9049;DHT22;4559;47.252;9.592;2022-07-04T15:40:37;22.50;99.90
9049;DHT22;4559;47.252;9.592;2022-07-04T15:43:03;22.00;99.90
9049;DHT22;4559;47.252;9.592;2022-07-04T15:45:29;21.40;99.90
9049;DHT22;4559;47.252;9.592;2022-07-04T15:47:54;21.10;99.90
9049;DHT22;4559;47.252;9.592;2022-07-04T15:50:20;20.70;99.90
9049;DHT22;4559;47.252;9.592;2022-07-04T15:52:46;20.50;99.90
9049;DHT22;4559;47.252;9.592;2022-07-04T15:55:11;20.20;99.90
9049;DHT22;4559;47.252;9.592;2022-07-04T15:57:37;19.90;99.90
9049;DHT22;4559;47.252;9.592;2022-07-04T16:00:04;19.70;99.90
9049;DHT22;4559;47.252;9.592;2022-07-04T16:02:30;19.60;99.90
9049;DHT22;4559;47.252;9.592;2022-07-04T16:04:55;19.50;99.90
9049;DHT22;4559;47.252;9.592;2022-07-04T16:07:21;19.40;99.90
9049;DHT22;4559;47.252;9.592;2022-07-04T16:09:47;19.30;99.90
9049;DHT22;4559;47.252;9.592;2022-07-04T16:12:12;19.40;99.90
9049;DHT22;4559;47.252;9.592;2022-07-04T16:14:38;19.40;99.90
9049;DHT22;4559;47.252;9.592;2022-07-04T16:17:04;19.40;99.90
9049;DHT22;4559;47.252;9.592;2022-07-04T16:19:29;19.50;99.90
9049;DHT22;4559;47.252;9.592;2022-07-04T16:21:56;19.50;99.90
9049;DHT22;4559;47.252;9.592;2022-07-04T16:24:21;19.40;99.90
9049;DHT22;4559;47.252;9.592;2022-07-04T16:26:47;19.30;99.90
9049;DHT22;4559;47.252;9.592;2022-07-04T16:29:12;19.30;99.90
9049;DHT22;4559;47.252;9.592;2022-07-04T16:31:38;19.20;99.90
9049;DHT22;4559;47.252;9.592;2022-07-04T16:34:04;19.20;99.90
9049;DHT22;4559;47.252;9.592;2022-07-04T16:36:30;19.20;99.90
9049;DHT22;4559;47.252;9.592;2022-07-04T16:38:56;19.10;99.90
9049;DHT22;4559;47.252;9.592;2022-07-04T16:41:22;19.00;99.90
9049;DHT22;4559;47.252;9.592;2022-07-04T16:43:48;18.90;99.90